sensor_id;sensor_type;location;lat;lon;timestamp;P1;durP1;ratioP1;P2;durP2;ratioP2
16954;SDS011;8594;52.052;8.354;2023-04-06T00:00:32;11.53;;;5.63;;
16954;SDS011;8594;52.052;8.354;2023-04-06T00:02:59;13.53;;;5.10;;
16954;SDS011;8594;52.052;8.354;2023-04-06T00:05:26;9.07;;;5.63;;
16954;SDS011;8594;52.052;8.354;2023-04-06T00:07:55;13.20;;;6.10;;
16954;SDS011;8594;52.052;8.354;2023-04-06T00:10:23;8.97;;;5.43;;
16954;SDS011;8594;52.052;8.354;2023-04-06T00:12:52;8.13;;;5.73;;
16954;SDS011;8594;52.052;8.354;2023-04-06T00:15:19;9.20;;;5.47;;
16954;SDS011;8594;52.052;8.354;2023-04-06T00:17:46;10.47;;;5.87;;
16954;SDS011;8594;52.052;8.354;2023-04-06T00:20:13;9.57;;;5.27;;
16954;SDS011;8594;52.052;8.354;2023-04-06T00:22:40;11.20;;;5.43;;
16954;SDS011;8594;52.052;8.354;2023-04-06T00:25:07;13.40;;;5.50;;
16954;SDS011;8594;52.052;8.354;2023-04-06T00:27:35;13.33;;;5.47;;
16954;SDS011;8594;52.052;8.354;2023-04-06T00:30:03;11.77;;;5.23;;
16954;SDS011;8594;52.052;8.354;2023-04-06T00:32:31;9.13;;;5.03;;
16954;SDS011;8594;52.052;8.354;2023-04-06T00:34:58;8.07;;;5.17;;
16954;SDS011;8594;52.052;8.354;2023-04-06T00:37:25;8.17;;;5.33;;
16954;SDS011;8594;52.052;8.354;2023-04-06T00:39:52;8.50;;;5.43;;
16954;SDS011;8594;52.052;8.354;2023-04-06T00:42:18;7.37;;;5.10;;
16954;SDS011;8594;52.052;8.354;2023-04-06T00:44:51;11.30;;;6.00;;
16954;SDS011;8594;52.052;8.354;2023-04-06T00:47:20;8.07;;;5.17;;
16954;SDS011;8594;52.052;8.354;2023-04-06T00:49:47;10.90;;;5.43;;
16954;SDS011;8594;52.052;8.354;2023-04-06T00:52:15;7.83;;;5.00;;
16954;SDS011;8594;52.052;8.354;2023-04-06T00:54:42;10.13;;;5.37;;
16954;SDS011;8594;52.052;8.354;2023-04-06T00:57:09;9.70;;;5.97;;
16954;SDS011;8594;52.052;8.354;2023-04-06T00:59:37;9.53;;;6.03;;
16954;SDS011;8594;52.052;8.354;2023-04-06T01:02:04;13.47;;;5.80;;
16954;SDS011;8594;52.052;8.354;2023-04-06T01:04:33;11.93;;;5.57;;
16954;SDS011;8594;52.052;8.354;2023-04-06T01:07:01;11.10;;;5.33;;
16954;SDS011;8594;52.052;8.354;2023-04-06T01:09:28;8.83;;;5.67;;
16954;SDS011;8594;52.052;8.354;2023-04-06T01:11:55;9.17;;;4.93;;
16954;SDS011;8594;52.052;8.354;2023-04-06T01:14:22;10.90;;;5.23;;
16954;SDS011;8594;52.052;8.354;2023-04-06T01:16:49;7.17;;;4.60;;
16954;SDS011;8594;52.052;8.354;2023-04-06T01:19:17;10.00;;;6.27;;
16954;SDS011;8594;52.052;8.354;2023-04-06T01:21:46;9.67;;;5.77;;
16954;SDS011;8594;52.052;8.354;2023-04-06T01:24:16;9.13;;;5.77;;
16954;SDS011;8594;52.052;8.354;2023-04-06T01:26:43;14.43;;;5.97;;
16954;SDS011;8594;52.052;8.354;2023-04-06T01:29:10;10.70;;;5.60;;
16954;SDS011;8594;52.052;8.354;2023-04-06T01:31:38;11.33;;;5.67;;
16954;SDS011;8594;52.052;8.354;2023-04-06T01:34:05;9.67;;;6.30;;
16954;SDS011;8594;52.052;8.354;2023-04-06T01:36:32;9.70;;;5.40;;
16954;SDS011;8594;52.052;8.354;2023-04-06T01:38:59;9.70;;;6.30;;
16954;SDS011;8594;52.052;8.354;2023-04-06T01:41:27;10.07;;;6.13;;
16954;SDS011;8594;52.052;8.354;2023-04-06T01:43:54;13.63;;;5.93;;
16954;SDS011;8594;52.052;8.354;2023-04-06T01:46:22;10.13;;;5.73;;
16954;SDS011;8594;52.052;8.354;2023-04-06T01:48:49;11.57;;;5.73;;
16954;SDS011;8594;52.052;8.354;2023-04-06T01:51:16;11.20;;;5.77;;
16954;SDS011;8594;52.052;8.354;2023-04-06T01:53:43;11.07;;;5.67;;
16954;SDS011;8594;52.052;8.354;2023-04-06T01:56:09;12.13;;;6.20;;
16954;SDS011;8594;52.052;8.354;2023-04-06T01:58:38;12.23;;;6.00;;
16954;SDS011;8594;52.052;8.354;2023-04-06T02:01:05;13.37;;;6.33;;
16954;SDS011;8594;52.052;8.354;2023-04-06T02:03:31;10.67;;;5.80;;
16954;SDS011;8594;52.052;8.354;2023-04-06T02:05:58;12.90;;;5.77;;
16954;SDS011;8594;52.052;8.354;2023-04-06T02:08:25;12.27;;;6.33;;
16954;SDS011;8594;52.052;8.354;2023-04-06T02:10:52;9.23;;;5.47;;
16954;SDS011;8594;52.052;8.354;2023-04-06T02:13:19;10.23;;;6.13;;
16954;SDS011;8594;52.052;8.354;2023-04-06T02:15:47;10.93;;;6.27;;
16954;SDS011;8594;52.052;8.354;2023-04-06T02:18:14;10.77;;;6.20;;
16954;SDS011;8594;52.052;8.354;2023-04-06T02:20:42;10.87;;;5.67;;
16954;SDS011;8594;52.052;8.354;2023-04-06T02:23:09;11.53;;;5.83;;
16954;SDS011;8594;52.052;8.354;2023-04-06T02:25:36;8.97;;;5.70;;
16954;SDS011;8594;52.052;8.354;2023-04-06T02:28:03;12.57;;;6.43;;
16954;SDS011;8594;52.052;8.354;2023-04-06T02:30:30;13.40;;;5.47;;
16954;SDS011;8594;52.052;8.354;2023-04-06T02:32:59;10.73;;;5.80;;
16954;SDS011;8594;52.052;8.354;2023-04-06T02:35:27;15.20;;;5.97;;
16954;SDS011;8594;52.052;8.354;2023-04-06T02:37:54;11.43;;;6.20;;
16954;SDS011;8594;52.052;8.354;2023-04-06T02:40:21;10.77;;;6.03;;
16954;SDS011;8594;52.052;8.354;2023-04-06T02:42:48;11.47;;;6.63;;
16954;SDS011;8594;52.052;8.354;2023-04-06T02:45:15;12.37;;;6.33;;
16954;SDS011;8594;52.052;8.354;2023-04-06T02:47:42;7.10;;;5.03;;
16954;SDS011;8594;52.052;8.354;2023-04-06T02:50:10;8.97;;;5.77;;
16954;SDS011;8594;52.052;8.354;2023-04-06T02:52:37;10.70;;;6.47;;
16954;SDS011;8594;52.052;8.354;2023-04-06T02:55:05;8.70;;;5.57;;
16954;SDS011;8594;52.052;8.354;2023-04-06T02:57:33;9.87;;;6.03;;
16954;SDS011;8594;52.052;8.354;2023-04-06T03:00:00;10.63;;;5.67;;
16954;SDS011;8594;52.052;8.354;2023-04-06T03:02:27;9.97;;;5.83;;
16954;SDS011;8594;52.052;8.354;2023-04-06T03:04:53;11.47;;;6.17;;
16954;SDS011;8594;52.052;8.354;2023-04-06T03:07:22;12.23;;;6.43;;
16954;SDS011;8594;52.052;8.354;2023-04-06T03:09:48;10.73;;;5.87;;
16954;SDS011;8594;52.052;8.354;2023-04-06T03:12:15;12.20;;;6.00;;
16954;SDS011;8594;52.052;8.354;2023-04-06T03:14:42;9.30;;;6.20;;
16954;SDS011;8594;52.052;8.354;2023-04-06T03:17:09;12.00;;;6.40;;
16954;SDS011;8594;52.052;8.354;2023-04-06T03:19:36;9.50;;;5.73;;
16954;SDS011;8594;52.052;8.354;2023-04-06T03:22:03;11.87;;;6.50;;
16954;SDS011;8594;52.052;8.354;2023-04-06T03:24:31;12.73;;;6.37;;
16954;SDS011;8594;52.052;8.354;2023-04-06T03:26:58;11.33;;;5.90;;
16954;SDS011;8594;52.052;8.354;2023-04-06T03:29:25;10.53;;;6.50;;
16954;SDS011;8594;52.052;8.354;2023-04-06T03:31:52;10.97;;;6.57;;
16954;SDS011;8594;52.052;8.354;2023-04-06T03:34:18;10.70;;;6.13;;
16954;SDS011;8594;52.052;8.354;2023-04-06T03:36:46;11.37;;;6.20;;
16954;SDS011;8594;52.052;8.354;2023-04-06T03:39:12;11.70;;;5.97;;
16954;SDS011;8594;52.052;8.354;2023-04-06T03:41:41;13.23;;;6.40;;
16954;SDS011;8594;52.052;8.354;2023-04-06T03:44:09;11.30;;;6.20;;
16954;SDS011;8594;52.052;8.354;2023-04-06T03:46:36;13.63;;;6.33;;
16954;SDS011;8594;52.052;8.354;2023-04-06T03:49:06;9.43;;;5.70;;
16954;SDS011;8594;52.052;8.354;2023-04-06T03:51:32;16.00;;;6.47;;
16954;SDS011;8594;52.052;8.354;2023-04-06T03:53:59;14.57;;;5.70;;
16954;SDS011;8594;52.052;8.354;2023-04-06T03:56:27;10.37;;;6.20;;
16954;SDS011;8594;52.052;8.354;2023-04-06T03:58:56;15.40;;;6.40;;
16954;SDS011;8594;52.052;8.354;2023-04-06T04:01:23;11.70;;;6.67;;
16954;SDS011;8594;52.052;8.354;2023-04-06T04:03:49;10.20;;;5.80;;
16954;SDS011;8594;52.052;8.354;2023-04-06T04:06:17;11.13;;;5.90;;
16954;SDS011;8594;52.052;8.354;2023-04-06T04:08:43;11.07;;;6.10;;
16954;SDS011;8594;52.052;8.354;2023-04-06T04:11:10;12.30;;;5.60;;
16954;SDS011;8594;52.052;8.354;2023-04-06T04:13:37;10.33;;;5.60;;
16954;SDS011;8594;52.052;8.354;2023-04-06T04:16:05;10.07;;;5.30;;
16954;SDS011;8594;52.052;8.354;2023-04-06T04:18:32;15.80;;;6.23;;
16954;SDS011;8594;52.052;8.354;2023-04-06T04:20:59;9.63;;;5.70;;
16954;SDS011;8594;52.052;8.354;2023-04-06T04:23:26;10.40;;;6.50;;
16954;SDS011;8594;52.052;8.354;2023-04-06T04:25:53;12.80;;;6.53;;
16954;SDS011;8594;52.052;8.354;2023-04-06T04:28:20;11.57;;;6.03;;
16954;SDS011;8594;52.052;8.354;2023-04-06T04:30:47;15.77;;;6.33;;
16954;SDS011;8594;52.052;8.354;2023-04-06T04:33:15;10.43;;;6.10;;
16954;SDS011;8594;52.052;8.354;2023-04-06T04:35:42;14.67;;;6.27;;
16954;SDS011;8594;52.052;8.354;2023-04-06T04:38:09;13.20;;;6.20;;
16954;SDS011;8594;52.052;8.354;2023-04-06T04:40:36;21.27;;;6.40;;
16954;SDS011;8594;52.052;8.354;2023-04-06T04:43:03;10.57;;;6.17;;
16954;SDS011;8594;52.052;8.354;2023-04-06T04:45:29;12.23;;;6.00;;
16954;SDS011;8594;52.052;8.354;2023-04-06T04:47:56;9.00;;;5.70;;
16954;SDS011;8594;52.052;8.354;2023-04-06T04:50:24;12.13;;;6.00;;
16954;SDS011;8594;52.052;8.354;2023-04-06T04:52:51;11.07;;;6.00;;
16954;SDS011;8594;52.052;8.354;2023-04-06T04:55:18;13.60;;;6.97;;
16954;SDS011;8594;52.052;8.354;2023-04-06T04:57:45;11.13;;;6.23;;
16954;SDS011;8594;52.052;8.354;2023-04-06T05:00:12;11.27;;;6.47;;
16954;SDS011;8594;52.052;8.354;2023-04-06T05:02:40;12.03;;;6.43;;
16954;SDS011;8594;52.052;8.354;2023-04-06T05:05:07;15.80;;;6.33;;
16954;SDS011;8594;52.052;8.354;2023-04-06T05:07:36;15.70;;;7.00;;
16954;SDS011;8594;52.052;8.354;2023-04-06T05:10:02;11.20;;;6.27;;
16954;SDS011;8594;52.052;8.354;2023-04-06T05:12:30;11.87;;;6.03;;
16954;SDS011;8594;52.052;8.354;2023-04-06T05:14:57;12.40;;;6.57;;
16954;SDS011;8594;52.052;8.354;2023-04-06T05:17:24;12.77;;;6.10;;
16954;SDS011;8594;52.052;8.354;2023-04-06T05:19:51;10.93;;;6.23;;
16954;SDS011;8594;52.052;8.354;2023-04-06T05:22:18;12.63;;;6.00;;
16954;SDS011;8594;52.052;8.354;2023-04-06T05:24:46;15.73;;;6.47;;
16954;SDS011;8594;52.052;8.354;2023-04-06T05:27:13;14.90;;;6.80;;
16954;SDS011;8594;52.052;8.354;2023-04-06T05:29:40;10.17;;;6.00;;
16954;SDS011;8594;52.052;8.354;2023-04-06T05:32:06;22.80;;;6.90;;
16954;SDS011;8594;52.052;8.354;2023-04-06T05:34:33;13.53;;;6.43;;
16954;SDS011;8594;52.052;8.354;2023-04-06T05:37:00;14.73;;;7.20;;
16954;SDS011;8594;52.052;8.354;2023-04-06T05:39:27;12.20;;;6.40;;
16954;SDS011;8594;52.052;8.354;2023-04-06T05:41:55;9.70;;;6.17;;
16954;SDS011;8594;52.052;8.354;2023-04-06T05:44:22;11.33;;;6.30;;
16954;SDS011;8594;52.052;8.354;2023-04-06T05:46:49;13.33;;;5.87;;
16954;SDS011;8594;52.052;8.354;2023-04-06T05:49:16;16.30;;;6.37;;
16954;SDS011;8594;52.052;8.354;2023-04-06T05:51:42;13.43;;;6.20;;
16954;SDS011;8594;52.052;8.354;2023-04-06T05:54:09;9.43;;;5.77;;
16954;SDS011;8594;52.052;8.354;2023-04-06T05:56:36;13.03;;;6.50;;
16954;SDS011;8594;52.052;8.354;2023-04-06T05:59:04;13.07;;;6.40;;
16954;SDS011;8594;52.052;8.354;2023-04-06T06:01:32;17.87;;;6.97;;
16954;SDS011;8594;52.052;8.354;2023-04-06T06:04:00;12.63;;;5.90;;
16954;SDS011;8594;52.052;8.354;2023-04-06T06:06:27;14.77;;;6.40;;
16954;SDS011;8594;52.052;8.354;2023-04-06T06:08:55;8.77;;;5.90;;
16954;SDS011;8594;52.052;8.354;2023-04-06T06:11:23;11.07;;;6.30;;
16954;SDS011;8594;52.052;8.354;2023-04-06T06:13:50;14.47;;;7.13;;
16954;SDS011;8594;52.052;8.354;2023-04-06T06:16:19;13.30;;;6.77;;
16954;SDS011;8594;52.052;8.354;2023-04-06T06:18:46;10.20;;;6.10;;
16954;SDS011;8594;52.052;8.354;2023-04-06T06:21:13;13.53;;;6.53;;
16954;SDS011;8594;52.052;8.354;2023-04-06T06:23:42;11.90;;;6.20;;
16954;SDS011;8594;52.052;8.354;2023-04-06T06:26:09;12.80;;;6.20;;
16954;SDS011;8594;52.052;8.354;2023-04-06T06:28:36;11.90;;;6.20;;
16954;SDS011;8594;52.052;8.354;2023-04-06T06:31:03;19.97;;;7.13;;
16954;SDS011;8594;52.052;8.354;2023-04-06T06:33:31;12.43;;;6.77;;
16954;SDS011;8594;52.052;8.354;2023-04-06T06:35:58;12.77;;;5.90;;
16954;SDS011;8594;52.052;8.354;2023-04-06T06:38:25;17.23;;;7.50;;
16954;SDS011;8594;52.052;8.354;2023-04-06T06:40:52;13.27;;;5.67;;
16954;SDS011;8594;52.052;8.354;2023-04-06T06:43:19;12.10;;;6.57;;
16954;SDS011;8594;52.052;8.354;2023-04-06T06:45:46;13.07;;;7.00;;
16954;SDS011;8594;52.052;8.354;2023-04-06T06:48:13;10.30;;;6.37;;
16954;SDS011;8594;52.052;8.354;2023-04-06T06:50:41;10.30;;;6.93;;
16954;SDS011;8594;52.052;8.354;2023-04-06T06:53:08;12.23;;;6.93;;
16954;SDS011;8594;52.052;8.354;2023-04-06T06:55:35;13.53;;;7.00;;
16954;SDS011;8594;52.052;8.354;2023-04-06T06:58:02;14.37;;;7.67;;
16954;SDS011;8594;52.052;8.354;2023-04-06T07:00:29;13.83;;;6.70;;
16954;SDS011;8594;52.052;8.354;2023-04-06T07:02:56;11.57;;;6.70;;
16954;SDS011;8594;52.052;8.354;2023-04-06T07:05:23;9.40;;;6.43;;
16954;SDS011;8594;52.052;8.354;2023-04-06T07:07:51;10.90;;;6.53;;
16954;SDS011;8594;52.052;8.354;2023-04-06T07:10:18;9.30;;;6.53;;
16954;SDS011;8594;52.052;8.354;2023-04-06T07:12:45;13.40;;;6.70;;
16954;SDS011;8594;52.052;8.354;2023-04-06T07:15:12;16.20;;;7.17;;
16954;SDS011;8594;52.052;8.354;2023-04-06T07:17:39;14.37;;;6.83;;
16954;SDS011;8594;52.052;8.354;2023-04-06T07:20:06;11.83;;;6.97;;
16954;SDS011;8594;52.052;8.354;2023-04-06T07:22:34;9.03;;;6.37;;
16954;SDS011;8594;52.052;8.354;2023-04-06T07:25:02;12.10;;;6.90;;
16954;SDS011;8594;52.052;8.354;2023-04-06T07:27:31;13.93;;;7.20;;
16954;SDS011;8594;52.052;8.354;2023-04-06T07:29:57;13.97;;;6.83;;
16954;SDS011;8594;52.052;8.354;2023-04-06T07:32:24;19.43;;;7.80;;
16954;SDS011;8594;52.052;8.354;2023-04-06T07:34:51;13.23;;;6.83;;
16954;SDS011;8594;52.052;8.354;2023-04-06T07:37:18;11.57;;;6.57;;
16954;SDS011;8594;52.052;8.354;2023-04-06T07:39:45;10.13;;;6.97;;
16954;SDS011;8594;52.052;8.354;2023-04-06T07:42:13;12.20;;;7.07;;
16954;SDS011;8594;52.052;8.354;2023-04-06T07:44:40;10.17;;;6.27;;
16954;SDS011;8594;52.052;8.354;2023-04-06T07:47:06;10.97;;;7.10;;
16954;SDS011;8594;52.052;8.354;2023-04-06T07:49:33;13.00;;;6.90;;
16954;SDS011;8594;52.052;8.354;2023-04-06T07:52:00;13.73;;;6.77;;
16954;SDS011;8594;52.052;8.354;2023-04-06T07:54:27;12.83;;;6.73;;
16954;SDS011;8594;52.052;8.354;2023-04-06T07:56:54;12.50;;;6.57;;
16954;SDS011;8594;52.052;8.354;2023-04-06T07:59:22;11.53;;;7.20;;
16954;SDS011;8594;52.052;8.354;2023-04-06T08:01:49;14.07;;;7.00;;
16954;SDS011;8594;52.052;8.354;2023-04-06T08:04:16;10.73;;;7.20;;
16954;SDS011;8594;52.052;8.354;2023-04-06T08:06:43;11.97;;;6.90;;
16954;SDS011;8594;52.052;8.354;2023-04-06T08:09:10;12.23;;;7.63;;
16954;SDS011;8594;52.052;8.354;2023-04-06T08:11:37;13.90;;;8.10;;
16954;SDS011;8594;52.052;8.354;2023-04-06T08:14:03;13.80;;;7.70;;
16954;SDS011;8594;52.052;8.354;2023-04-06T08:16:31;11.43;;;7.63;;
16954;SDS011;8594;52.052;8.354;2023-04-06T08:18:58;12.97;;;7.10;;
16954;SDS011;8594;52.052;8.354;2023-04-06T08:21:25;12.00;;;7.07;;
16954;SDS011;8594;52.052;8.354;2023-04-06T08:23:52;10.53;;;7.23;;
16954;SDS011;8594;52.052;8.354;2023-04-06T08:26:19;13.87;;;7.83;;
16954;SDS011;8594;52.052;8.354;2023-04-06T08:28:46;12.23;;;7.30;;
16954;SDS011;8594;52.052;8.354;2023-04-06T08:31:12;13.03;;;7.27;;
16954;SDS011;8594;52.052;8.354;2023-04-06T08:33:41;15.77;;;7.70;;
16954;SDS011;8594;52.052;8.354;2023-04-06T08:36:09;12.57;;;7.57;;
16954;SDS011;8594;52.052;8.354;2023-04-06T08:38:37;13.67;;;7.90;;
16954;SDS011;8594;52.052;8.354;2023-04-06T08:41:07;12.03;;;7.37;;
16954;SDS011;8594;52.052;8.354;2023-04-06T08:43:36;14.23;;;7.47;;
16954;SDS011;8594;52.052;8.354;2023-04-06T08:46:12;11.80;;;7.83;;
16954;SDS011;8594;52.052;8.354;2023-04-06T08:48:43;13.60;;;8.30;;
16954;SDS011;8594;52.052;8.354;2023-04-06T08:51:13;15.73;;;8.20;;
16954;SDS011;8594;52.052;8.354;2023-04-06T08:53:41;14.43;;;8.30;;
16954;SDS011;8594;52.052;8.354;2023-04-06T08:56:08;14.40;;;7.50;;
16954;SDS011;8594;52.052;8.354;2023-04-06T08:58:37;14.37;;;8.30;;
16954;SDS011;8594;52.052;8.354;2023-04-06T09:01:06;12.77;;;7.93;;
16954;SDS011;8594;52.052;8.354;2023-04-06T09:03:37;15.13;;;8.50;;
16954;SDS011;8594;52.052;8.354;2023-04-06T09:06:08;17.50;;;9.00;;
16954;SDS011;8594;52.052;8.354;2023-04-06T09:08:38;12.40;;;8.27;;
16954;SDS011;8594;52.052;8.354;2023-04-06T09:11:07;12.33;;;8.33;;
16954;SDS011;8594;52.052;8.354;2023-04-06T09:13:44;16.00;;;8.70;;
16954;SDS011;8594;52.052;8.354;2023-04-06T09:16:13;11.47;;;7.97;;
16954;SDS011;8594;52.052;8.354;2023-04-06T09:18:40;17.07;;;8.23;;
16954;SDS011;8594;52.052;8.354;2023-04-06T09:21:09;12.50;;;7.33;;
16954;SDS011;8594;52.052;8.354;2023-04-06T09:23:37;14.27;;;8.50;;
16954;SDS011;8594;52.052;8.354;2023-04-06T09:26:05;14.07;;;8.27;;
16954;SDS011;8594;52.052;8.354;2023-04-06T09:28:41;15.23;;;8.37;;
16954;SDS011;8594;52.052;8.354;2023-04-06T09:31:13;14.30;;;7.97;;
16954;SDS011;8594;52.052;8.354;2023-04-06T09:33:41;18.03;;;8.67;;
16954;SDS011;8594;52.052;8.354;2023-04-06T09:36:12;13.43;;;8.13;;
16954;SDS011;8594;52.052;8.354;2023-04-06T09:38:51;17.33;;;9.10;;
16954;SDS011;8594;52.052;8.354;2023-04-06T09:41:20;13.77;;;8.23;;
16954;SDS011;8594;52.052;8.354;2023-04-06T09:43:49;13.73;;;8.33;;
16954;SDS011;8594;52.052;8.354;2023-04-06T09:46:17;14.20;;;8.60;;
16954;SDS011;8594;52.052;8.354;2023-04-06T09:48:47;14.73;;;8.80;;
16954;SDS011;8594;52.052;8.354;2023-04-06T09:51:16;14.53;;;7.90;;
16954;SDS011;8594;52.052;8.354;2023-04-06T09:53:46;13.77;;;9.10;;
16954;SDS011;8594;52.052;8.354;2023-04-06T09:56:20;14.60;;;8.33;;
16954;SDS011;8594;52.052;8.354;2023-04-06T09:58:55;15.10;;;8.73;;
16954;SDS011;8594;52.052;8.354;2023-04-06T10:01:29;15.13;;;8.70;;
16954;SDS011;8594;52.052;8.354;2023-04-06T10:04:08;19.13;;;9.17;;
16954;SDS011;8594;52.052;8.354;2023-04-06T10:07:18;13.77;;;8.83;;
16954;SDS011;8594;52.052;8.354;2023-04-06T10:09:53;17.20;;;9.10;;
16954;SDS011;8594;52.052;8.354;2023-04-06T10:12:26;16.13;;;8.80;;
16954;SDS011;8594;52.052;8.354;2023-04-06T10:14:53;17.97;;;9.43;;
16954;SDS011;8594;52.052;8.354;2023-04-06T10:17:21;16.50;;;9.13;;
16954;SDS011;8594;52.052;8.354;2023-04-06T10:19:51;15.30;;;8.87;;
16954;SDS011;8594;52.052;8.354;2023-04-06T10:22:29;16.20;;;8.97;;
16954;SDS011;8594;52.052;8.354;2023-04-06T10:25:07;17.37;;;9.70;;
16954;SDS011;8594;52.052;8.354;2023-04-06T10:27:34;16.57;;;9.73;;
16954;SDS011;8594;52.052;8.354;2023-04-06T10:30:02;18.00;;;9.33;;
16954;SDS011;8594;52.052;8.354;2023-04-06T10:32:34;19.40;;;10.30;;
16954;SDS011;8594;52.052;8.354;2023-04-06T10:35:06;16.47;;;9.50;;
16954;SDS011;8594;52.052;8.354;2023-04-06T10:37:50;21.13;;;10.63;;
16954;SDS011;8594;52.052;8.354;2023-04-06T10:40:19;17.60;;;10.30;;
16954;SDS011;8594;52.052;8.354;2023-04-06T10:42:51;28.17;;;10.67;;
16954;SDS011;8594;52.052;8.354;2023-04-06T10:45:19;17.77;;;10.33;;
16954;SDS011;8594;52.052;8.354;2023-04-06T10:47:47;18.50;;;10.03;;
16954;SDS011;8594;52.052;8.354;2023-04-06T10:50:15;20.20;;;10.63;;
16954;SDS011;8594;52.052;8.354;2023-04-06T10:52:43;17.03;;;10.27;;
16954;SDS011;8594;52.052;8.354;2023-04-06T10:55:13;21.43;;;11.07;;
16954;SDS011;8594;52.052;8.354;2023-04-06T10:57:41;19.07;;;10.93;;
16954;SDS011;8594;52.052;8.354;2023-04-06T11:00:27;19.07;;;11.13;;
16954;SDS011;8594;52.052;8.354;2023-04-06T11:02:59;20.67;;;10.77;;
16954;SDS011;8594;52.052;8.354;2023-04-06T11:05:52;17.97;;;10.70;;
16954;SDS011;8594;52.052;8.354;2023-04-06T11:08:26;17.80;;;10.73;;
16954;SDS011;8594;52.052;8.354;2023-04-06T11:11:15;17.83;;;10.80;;
16954;SDS011;8594;52.052;8.354;2023-04-06T11:13:58;16.50;;;10.90;;
16954;SDS011;8594;52.052;8.354;2023-04-06T11:16:27;19.77;;;10.57;;
16954;SDS011;8594;52.052;8.354;2023-04-06T11:18:56;17.67;;;11.50;;
16954;SDS011;8594;52.052;8.354;2023-04-06T11:21:33;21.43;;;11.47;;
16954;SDS011;8594;52.052;8.354;2023-04-06T11:24:08;22.20;;;10.87;;
16954;SDS011;8594;52.052;8.354;2023-04-06T11:26:42;17.90;;;10.70;;
16954;SDS011;8594;52.052;8.354;2023-04-06T11:29:13;19.70;;;11.37;;
16954;SDS011;8594;52.052;8.354;2023-04-06T11:31:44;16.50;;;9.97;;
16954;SDS011;8594;52.052;8.354;2023-04-06T11:34:16;19.67;;;11.13;;
16954;SDS011;8594;52.052;8.354;2023-04-06T11:36:45;19.17;;;11.43;;
16954;SDS011;8594;52.052;8.354;2023-04-06T11:39:17;22.07;;;11.50;;
16954;SDS011;8594;52.052;8.354;2023-04-06T11:41:49;17.63;;;10.20;;
16954;SDS011;8594;52.052;8.354;2023-04-06T11:44:28;22.37;;;11.73;;
16954;SDS011;8594;52.052;8.354;2023-04-06T11:46:59;16.80;;;10.80;;
16954;SDS011;8594;52.052;8.354;2023-04-06T11:49:27;18.33;;;11.53;;
16954;SDS011;8594;52.052;8.354;2023-04-06T11:51:54;21.20;;;11.40;;
16954;SDS011;8594;52.052;8.354;2023-04-06T11:54:31;19.47;;;10.57;;
16954;SDS011;8594;52.052;8.354;2023-04-06T11:57:01;15.53;;;9.83;;
16954;SDS011;8594;52.052;8.354;2023-04-06T11:59:30;17.40;;;9.37;;
16954;SDS011;8594;52.052;8.354;2023-04-06T12:01:57;21.63;;;10.53;;
16954;SDS011;8594;52.052;8.354;2023-04-06T12:04:24;16.97;;;9.77;;
16954;SDS011;8594;52.052;8.354;2023-04-06T12:06:51;19.90;;;10.73;;
16954;SDS011;8594;52.052;8.354;2023-04-06T12:09:18;17.07;;;9.90;;
16954;SDS011;8594;52.052;8.354;2023-04-06T12:11:44;17.63;;;9.27;;
16954;SDS011;8594;52.052;8.354;2023-04-06T12:14:13;16.30;;;9.23;;
16954;SDS011;8594;52.052;8.354;2023-04-06T12:16:41;13.57;;;9.13;;
16954;SDS011;8594;52.052;8.354;2023-04-06T12:19:08;21.93;;;10.30;;
16954;SDS011;8594;52.052;8.354;2023-04-06T12:21:35;22.97;;;10.60;;
16954;SDS011;8594;52.052;8.354;2023-04-06T12:24:03;16.90;;;10.27;;
16954;SDS011;8594;52.052;8.354;2023-04-06T12:26:31;15.83;;;9.20;;
16954;SDS011;8594;52.052;8.354;2023-04-06T12:28:58;18.00;;;10.23;;
16954;SDS011;8594;52.052;8.354;2023-04-06T12:31:34;19.37;;;10.67;;
16954;SDS011;8594;52.052;8.354;2023-04-06T12:34:03;18.97;;;9.93;;
16954;SDS011;8594;52.052;8.354;2023-04-06T12:36:30;19.00;;;9.80;;
16954;SDS011;8594;52.052;8.354;2023-04-06T12:38:57;19.03;;;10.13;;
16954;SDS011;8594;52.052;8.354;2023-04-06T12:41:25;18.83;;;10.03;;
16954;SDS011;8594;52.052;8.354;2023-04-06T12:43:53;16.88;;;9.93;;
16954;SDS011;8594;52.052;8.354;2023-04-06T12:46:19;18.27;;;9.33;;
16954;SDS011;8594;52.052;8.354;2023-04-06T12:48:48;13.57;;;8.77;;
16954;SDS011;8594;52.052;8.354;2023-04-06T12:51:18;19.13;;;9.20;;
16954;SDS011;8594;52.052;8.354;2023-04-06T12:53:45;15.70;;;9.53;;
16954;SDS011;8594;52.052;8.354;2023-04-06T12:56:14;13.93;;;9.30;;
16954;SDS011;8594;52.052;8.354;2023-04-06T12:58:43;15.53;;;9.17;;
16954;SDS011;8594;52.052;8.354;2023-04-06T13:01:10;16.73;;;9.23;;
16954;SDS011;8594;52.052;8.354;2023-04-06T13:03:37;15.83;;;9.03;;
16954;SDS011;8594;52.052;8.354;2023-04-06T13:06:06;15.30;;;8.67;;
16954;SDS011;8594;52.052;8.354;2023-04-06T13:08:34;15.67;;;8.73;;
16954;SDS011;8594;52.052;8.354;2023-04-06T13:11:02;15.63;;;9.53;;
16954;SDS011;8594;52.052;8.354;2023-04-06T13:13:29;15.97;;;8.73;;
16954;SDS011;8594;52.052;8.354;2023-04-06T13:15:59;14.57;;;8.53;;
16954;SDS011;8594;52.052;8.354;2023-04-06T13:18:28;16.77;;;9.10;;
16954;SDS011;8594;52.052;8.354;2023-04-06T13:20:56;19.40;;;10.00;;
16954;SDS011;8594;52.052;8.354;2023-04-06T13:23:25;16.33;;;9.37;;
16954;SDS011;8594;52.052;8.354;2023-04-06T13:25:59;18.13;;;9.37;;
16954;SDS011;8594;52.052;8.354;2023-04-06T13:28:28;19.10;;;10.00;;
16954;SDS011;8594;52.052;8.354;2023-04-06T13:30:55;17.10;;;9.80;;
16954;SDS011;8594;52.052;8.354;2023-04-06T13:33:24;16.97;;;9.60;;
16954;SDS011;8594;52.052;8.354;2023-04-06T13:35:51;15.53;;;9.37;;
16954;SDS011;8594;52.052;8.354;2023-04-06T13:38:18;19.30;;;10.17;;
16954;SDS011;8594;52.052;8.354;2023-04-06T13:40:47;16.97;;;9.83;;
16954;SDS011;8594;52.052;8.354;2023-04-06T13:43:15;16.13;;;8.70;;
16954;SDS011;8594;52.052;8.354;2023-04-06T13:45:48;20.07;;;9.70;;
16954;SDS011;8594;52.052;8.354;2023-04-06T13:48:15;15.93;;;9.83;;
16954;SDS011;8594;52.052;8.354;2023-04-06T13:50:42;18.53;;;9.87;;
16954;SDS011;8594;52.052;8.354;2023-04-06T13:53:10;15.10;;;9.57;;
16954;SDS011;8594;52.052;8.354;2023-04-06T13:55:37;19.07;;;10.07;;
16954;SDS011;8594;52.052;8.354;2023-04-06T13:58:05;19.80;;;10.20;;
16954;SDS011;8594;52.052;8.354;2023-04-06T14:00:32;19.37;;;9.97;;
16954;SDS011;8594;52.052;8.354;2023-04-06T14:02:59;16.60;;;10.13;;
16954;SDS011;8594;52.052;8.354;2023-04-06T14:05:26;18.13;;;10.30;;
16954;SDS011;8594;52.052;8.354;2023-04-06T14:07:57;17.83;;;10.27;;
16954;SDS011;8594;52.052;8.354;2023-04-06T14:10:24;22.23;;;10.60;;
16954;SDS011;8594;52.052;8.354;2023-04-06T14:12:52;20.53;;;11.03;;
16954;SDS011;8594;52.052;8.354;2023-04-06T14:15:20;19.77;;;11.17;;
16954;SDS011;8594;52.052;8.354;2023-04-06T14:17:48;23.47;;;11.33;;
16954;SDS011;8594;52.052;8.354;2023-04-06T14:20:16;18.53;;;10.90;;
16954;SDS011;8594;52.052;8.354;2023-04-06T14:22:43;21.03;;;11.37;;
16954;SDS011;8594;52.052;8.354;2023-04-06T14:25:10;20.60;;;10.50;;
16954;SDS011;8594;52.052;8.354;2023-04-06T14:27:37;22.37;;;11.70;;
16954;SDS011;8594;52.052;8.354;2023-04-06T14:30:05;22.43;;;11.53;;
16954;SDS011;8594;52.052;8.354;2023-04-06T14:32:35;24.50;;;12.00;;
16954;SDS011;8594;52.052;8.354;2023-04-06T14:35:02;25.63;;;11.57;;
16954;SDS011;8594;52.052;8.354;2023-04-06T14:37:30;22.97;;;11.97;;
16954;SDS011;8594;52.052;8.354;2023-04-06T14:39:57;22.07;;;12.17;;
16954;SDS011;8594;52.052;8.354;2023-04-06T14:42:24;21.43;;;12.40;;
16954;SDS011;8594;52.052;8.354;2023-04-06T14:44:51;21.73;;;12.13;;
16954;SDS011;8594;52.052;8.354;2023-04-06T14:47:18;23.10;;;12.10;;
16954;SDS011;8594;52.052;8.354;2023-04-06T14:49:48;21.23;;;11.37;;
16954;SDS011;8594;52.052;8.354;2023-04-06T14:52:18;25.77;;;13.27;;